sensor_id;sensor_type;location;lat;lon;timestamp;P1;durP1;ratioP1;P2;durP2;ratioP2
23668;SDS011;12011;47.422;15.018;2023-05-13T00:00:13;1.51;;;1.50;;
23668;SDS011;12011;47.422;15.018;2023-05-13T00:02:48;1.57;;;1.56;;
23668;SDS011;12011;47.422;15.018;2023-05-13T00:05:25;1.50;;;1.48;;
23668;SDS011;12011;47.422;15.018;2023-05-13T00:07:55;1.52;;;1.49;;
23668;SDS011;12011;47.422;15.018;2023-05-13T00:10:33;1.55;;;1.53;;
23668;SDS011;12011;47.422;15.018;2023-05-13T00:13:05;1.57;;;1.56;;
23668;SDS011;12011;47.422;15.018;2023-05-13T00:15:38;1.49;;;1.48;;
23668;SDS011;12011;47.422;15.018;2023-05-13T00:18:11;1.72;;;1.71;;
23668;SDS011;12011;47.422;15.018;2023-05-13T00:20:42;1.58;;;1.56;;
23668;SDS011;12011;47.422;15.018;2023-05-13T00:23:12;1.98;;;1.96;;
23668;SDS011;12011;47.422;15.018;2023-05-13T00:25:46;2.17;;;2.17;;
23668;SDS011;12011;47.422;15.018;2023-05-13T00:28:17;1.90;;;1.89;;
23668;SDS011;12011;47.422;15.018;2023-05-13T00:30:51;1.51;;;1.51;;
23668;SDS011;12011;47.422;15.018;2023-05-13T00:33:24;1.31;;;1.30;;
23668;SDS011;12011;47.422;15.018;2023-05-13T00:35:56;1.26;;;1.25;;
23668;SDS011;12011;47.422;15.018;2023-05-13T00:38:30;1.18;;;1.17;;
23668;SDS011;12011;47.422;15.018;2023-05-13T00:41:03;1.31;;;1.29;;
23668;SDS011;12011;47.422;15.018;2023-05-13T00:43:35;1.26;;;1.23;;
23668;SDS011;12011;47.422;15.018;2023-05-13T00:46:11;1.39;;;1.34;;
23668;SDS011;12011;47.422;15.018;2023-05-13T00:48:42;1.41;;;1.36;;
23668;SDS011;12011;47.422;15.018;2023-05-13T00:51:13;1.29;;;1.25;;
23668;SDS011;12011;47.422;15.018;2023-05-13T00:53:44;1.36;;;1.31;;
23668;SDS011;12011;47.422;15.018;2023-05-13T00:56:20;1.59;;;1.53;;
23668;SDS011;12011;47.422;15.018;2023-05-13T00:58:52;1.44;;;1.38;;
23668;SDS011;12011;47.422;15.018;2023-05-13T01:01:28;1.32;;;1.26;;
23668;SDS011;12011;47.422;15.018;2023-05-13T01:04:09;1.35;;;1.30;;
23668;SDS011;12011;47.422;15.018;2023-05-13T01:06:55;1.28;;;1.24;;
23668;SDS011;12011;47.422;15.018;2023-05-13T01:09:55;1.18;;;1.15;;
23668;SDS011;12011;47.422;15.018;2023-05-13T01:12:37;1.36;;;1.32;;
23668;SDS011;12011;47.422;15.018;2023-05-13T01:15:24;1.39;;;1.36;;
23668;SDS011;12011;47.422;15.018;2023-05-13T01:18:02;1.44;;;1.41;;
23668;SDS011;12011;47.422;15.018;2023-05-13T01:20:43;1.49;;;1.46;;
23668;SDS011;12011;47.422;15.018;2023-05-13T01:23:18;1.59;;;1.55;;
23668;SDS011;12011;47.422;15.018;2023-05-13T01:25:49;1.50;;;1.44;;
23668;SDS011;12011;47.422;15.018;2023-05-13T01:28:22;1.57;;;1.50;;
23668;SDS011;12011;47.422;15.018;2023-05-13T01:30:54;1.80;;;1.72;;
23668;SDS011;12011;47.422;15.018;2023-05-13T01:33:26;1.66;;;1.60;;
23668;SDS011;12011;47.422;15.018;2023-05-13T01:35:59;1.90;;;1.83;;
23668;SDS011;12011;47.422;15.018;2023-05-13T01:38:33;1.60;;;1.53;;
23668;SDS011;12011;47.422;15.018;2023-05-13T01:41:09;1.84;;;1.77;;
23668;SDS011;12011;47.422;15.018;2023-05-13T01:43:38;1.83;;;1.76;;
23668;SDS011;12011;47.422;15.018;2023-05-13T01:46:14;1.74;;;1.66;;
23668;SDS011;12011;47.422;15.018;2023-05-13T01:48:48;1.73;;;1.66;;
23668;SDS011;12011;47.422;15.018;2023-05-13T01:51:20;1.57;;;1.50;;
23668;SDS011;12011;47.422;15.018;2023-05-13T01:53:57;1.58;;;1.53;;
23668;SDS011;12011;47.422;15.018;2023-05-13T01:56:27;1.66;;;1.62;;
23668;SDS011;12011;47.422;15.018;2023-05-13T01:59:01;1.55;;;1.51;;
23668;SDS011;12011;47.422;15.018;2023-05-13T02:01:36;1.65;;;1.59;;
23668;SDS011;12011;47.422;15.018;2023-05-13T02:04:11;1.76;;;1.69;;
23668;SDS011;12011;47.422;15.018;2023-05-13T02:06:41;1.68;;;1.59;;
23668;SDS011;12011;47.422;15.018;2023-05-13T02:09:13;1.72;;;1.63;;
23668;SDS011;12011;47.422;15.018;2023-05-13T02:11:49;2.04;;;1.92;;
23668;SDS011;12011;47.422;15.018;2023-05-13T02:14:20;1.86;;;1.76;;
23668;SDS011;12011;47.422;15.018;2023-05-13T02:16:54;1.73;;;1.66;;
23668;SDS011;12011;47.422;15.018;2023-05-13T02:19:26;1.52;;;1.48;;
23668;SDS011;12011;47.422;15.018;2023-05-13T02:21:57;1.84;;;1.80;;
23668;SDS011;12011;47.422;15.018;2023-05-13T02:24:34;1.67;;;1.63;;
23668;SDS011;12011;47.422;15.018;2023-05-13T02:27:07;1.66;;;1.63;;
23668;SDS011;12011;47.422;15.018;2023-05-13T02:29:42;1.80;;;1.76;;
23668;SDS011;12011;47.422;15.018;2023-05-13T02:32:22;1.86;;;1.82;;
23668;SDS011;12011;47.422;15.018;2023-05-13T02:34:54;1.79;;;1.75;;
23668;SDS011;12011;47.422;15.018;2023-05-13T02:37:26;1.74;;;1.71;;
23668;SDS011;12011;47.422;15.018;2023-05-13T02:40:05;1.83;;;1.79;;
23668;SDS011;12011;47.422;15.018;2023-05-13T02:42:36;1.90;;;1.86;;
23668;SDS011;12011;47.422;15.018;2023-05-13T02:45:10;1.87;;;1.83;;
23668;SDS011;12011;47.422;15.018;2023-05-13T02:47:48;2.01;;;1.94;;
23668;SDS011;12011;47.422;15.018;2023-05-13T02:50:21;2.18;;;2.10;;
23668;SDS011;12011;47.422;15.018;2023-05-13T02:52:52;2.01;;;1.95;;
23668;SDS011;12011;47.422;15.018;2023-05-13T02:55:27;2.02;;;1.98;;
23668;SDS011;12011;47.422;15.018;2023-05-13T02:58:04;2.17;;;2.12;;
23668;SDS011;12011;47.422;15.018;2023-05-13T03:00:35;2.10;;;2.05;;
23668;SDS011;12011;47.422;15.018;2023-05-13T03:03:09;1.94;;;1.91;;
23668;SDS011;12011;47.422;15.018;2023-05-13T03:05:41;2.13;;;2.10;;
23668;SDS011;12011;47.422;15.018;2023-05-13T03:08:11;2.30;;;2.27;;
23668;SDS011;12011;47.422;15.018;2023-05-13T03:10:43;1.90;;;1.88;;
23668;SDS011;12011;47.422;15.018;2023-05-13T03:13:18;1.63;;;1.62;;
23668;SDS011;12011;47.422;15.018;2023-05-13T03:15:51;1.67;;;1.66;;
23668;SDS011;12011;47.422;15.018;2023-05-13T03:18:23;1.67;;;1.67;;
23668;SDS011;12011;47.422;15.018;2023-05-13T03:20:58;1.83;;;1.83;;
23668;SDS011;12011;47.422;15.018;2023-05-13T03:23:28;2.00;;;1.99;;
23668;SDS011;12011;47.422;15.018;2023-05-13T03:26:05;1.59;;;1.57;;
23668;SDS011;12011;47.422;15.018;2023-05-13T03:28:39;1.74;;;1.72;;
23668;SDS011;12011;47.422;15.018;2023-05-13T03:31:14;1.64;;;1.63;;
23668;SDS011;12011;47.422;15.018;2023-05-13T03:33:49;2.03;;;2.02;;
23668;SDS011;12011;47.422;15.018;2023-05-13T03:36:19;1.81;;;1.80;;
23668;SDS011;12011;47.422;15.018;2023-05-13T03:38:52;1.73;;;1.71;;
23668;SDS011;12011;47.422;15.018;2023-05-13T03:41:25;2.14;;;2.11;;
23668;SDS011;12011;47.422;15.018;2023-05-13T03:43:57;2.04;;;2.02;;
23668;SDS011;12011;47.422;15.018;2023-05-13T03:46:30;2.07;;;2.04;;
23668;SDS011;12011;47.422;15.018;2023-05-13T03:49:01;1.75;;;1.73;;
23668;SDS011;12011;47.422;15.018;2023-05-13T03:51:35;1.95;;;1.94;;
23668;SDS011;12011;47.422;15.018;2023-05-13T03:54:07;2.01;;;2.00;;
23668;SDS011;12011;47.422;15.018;2023-05-13T03:56:43;2.26;;;2.25;;
23668;SDS011;12011;47.422;15.018;2023-05-13T03:59:19;2.24;;;2.23;;
23668;SDS011;12011;47.422;15.018;2023-05-13T04:01:51;2.44;;;2.43;;
23668;SDS011;12011;47.422;15.018;2023-05-13T04:04:23;2.20;;;2.19;;
23668;SDS011;12011;47.422;15.018;2023-05-13T04:06:57;2.63;;;2.62;;
23668;SDS011;12011;47.422;15.018;2023-05-13T04:09:29;2.55;;;2.54;;
23668;SDS011;12011;47.422;15.018;2023-05-13T04:12:06;2.63;;;2.62;;
23668;SDS011;12011;47.422;15.018;2023-05-13T04:14:37;2.71;;;2.70;;
23668;SDS011;12011;47.422;15.018;2023-05-13T04:17:09;2.60;;;2.57;;
23668;SDS011;12011;47.422;15.018;2023-05-13T04:19:40;2.51;;;2.48;;
23668;SDS011;12011;47.422;15.018;2023-05-13T04:22:10;2.82;;;2.80;;
23668;SDS011;12011;47.422;15.018;2023-05-13T04:24:42;2.70;;;2.67;;
23668;SDS011;12011;47.422;15.018;2023-05-13T04:27:19;2.62;;;2.60;;
23668;SDS011;12011;47.422;15.018;2023-05-13T04:29:53;2.61;;;2.60;;
23668;SDS011;12011;47.422;15.018;2023-05-13T04:32:25;2.71;;;2.70;;
23668;SDS011;12011;47.422;15.018;2023-05-13T04:35:00;2.57;;;2.55;;
23668;SDS011;12011;47.422;15.018;2023-05-13T04:37:31;2.93;;;2.92;;
23668;SDS011;12011;47.422;15.018;2023-05-13T04:40:07;2.83;;;2.82;;
23668;SDS011;12011;47.422;15.018;2023-05-13T04:42:43;3.05;;;3.04;;
23668;SDS011;12011;47.422;15.018;2023-05-13T04:45:19;2.81;;;2.79;;
23668;SDS011;12011;47.422;15.018;2023-05-13T04:47:51;2.93;;;2.92;;
23668;SDS011;12011;47.422;15.018;2023-05-13T04:50:23;3.11;;;3.08;;
23668;SDS011;12011;47.422;15.018;2023-05-13T04:52:55;3.26;;;3.24;;
23668;SDS011;12011;47.422;15.018;2023-05-13T04:55:26;3.14;;;3.13;;
23668;SDS011;12011;47.422;15.018;2023-05-13T04:58:00;3.14;;;3.13;;
23668;SDS011;12011;47.422;15.018;2023-05-13T05:00:31;3.29;;;3.28;;
23668;SDS011;12011;47.422;15.018;2023-05-13T05:03:01;3.26;;;3.24;;
23668;SDS011;12011;47.422;15.018;2023-05-13T05:05:31;3.18;;;3.13;;
23668;SDS011;12011;47.422;15.018;2023-05-13T05:08:01;3.63;;;3.58;;
23668;SDS011;12011;47.422;15.018;2023-05-13T05:10:30;3.46;;;3.41;;
23668;SDS011;12011;47.422;15.018;2023-05-13T05:13:03;3.47;;;3.45;;
23668;SDS011;12011;47.422;15.018;2023-05-13T05:15:32;3.47;;;3.45;;
23668;SDS011;12011;47.422;15.018;2023-05-13T05:18:04;3.79;;;3.77;;
23668;SDS011;12011;47.422;15.018;2023-05-13T05:20:36;3.91;;;3.90;;
23668;SDS011;12011;47.422;15.018;2023-05-13T05:23:11;3.78;;;3.77;;
23668;SDS011;12011;47.422;15.018;2023-05-13T05:25:41;4.08;;;4.07;;
23668;SDS011;12011;47.422;15.018;2023-05-13T05:28:13;3.88;;;3.88;;
23668;SDS011;12011;47.422;15.018;2023-05-13T05:30:44;4.63;;;4.62;;
23668;SDS011;12011;47.422;15.018;2023-05-13T05:33:21;4.32;;;4.31;;
23668;SDS011;12011;47.422;15.018;2023-05-13T05:35:52;4.63;;;4.62;;
23668;SDS011;12011;47.422;15.018;2023-05-13T05:38:23;5.07;;;5.03;;
23668;SDS011;12011;47.422;15.018;2023-05-13T05:40:54;4.72;;;4.69;;
23668;SDS011;12011;47.422;15.018;2023-05-13T05:43:27;5.33;;;5.31;;
23668;SDS011;12011;47.422;15.018;2023-05-13T05:45:56;6.03;;;6.02;;
23668;SDS011;12011;47.422;15.018;2023-05-13T05:48:26;5.96;;;5.91;;
23668;SDS011;12011;47.422;15.018;2023-05-13T05:50:55;6.34;;;6.29;;
23668;SDS011;12011;47.422;15.018;2023-05-13T05:53:29;6.10;;;6.07;;
23668;SDS011;12011;47.422;15.018;2023-05-13T05:56:00;6.20;;;6.17;;
23668;SDS011;12011;47.422;15.018;2023-05-13T05:58:34;6.07;;;6.02;;
23668;SDS011;12011;47.422;15.018;2023-05-13T06:01:03;5.73;;;5.68;;
23668;SDS011;12011;47.422;15.018;2023-05-13T06:03:33;5.23;;;5.19;;
23668;SDS011;12011;47.422;15.018;2023-05-13T06:06:03;5.08;;;5.05;;
23668;SDS011;12011;47.422;15.018;2023-05-13T06:08:33;5.12;;;5.11;;
23668;SDS011;12011;47.422;15.018;2023-05-13T06:11:02;5.50;;;5.48;;
23668;SDS011;12011;47.422;15.018;2023-05-13T06:13:37;5.98;;;5.94;;
23668;SDS011;12011;47.422;15.018;2023-05-13T06:16:08;4.83;;;4.80;;
23668;SDS011;12011;47.422;15.018;2023-05-13T06:18:38;4.30;;;4.27;;
23668;SDS011;12011;47.422;15.018;2023-05-13T06:21:08;3.66;;;3.63;;
23668;SDS011;12011;47.422;15.018;2023-05-13T06:23:39;3.52;;;3.49;;
23668;SDS011;12011;47.422;15.018;2023-05-13T06:26:09;3.46;;;3.42;;
23668;SDS011;12011;47.422;15.018;2023-05-13T06:28:43;3.75;;;3.72;;
23668;SDS011;12011;47.422;15.018;2023-05-13T06:31:13;3.73;;;3.70;;
23668;SDS011;12011;47.422;15.018;2023-05-13T06:33:45;3.48;;;3.46;;
23668;SDS011;12011;47.422;15.018;2023-05-13T06:36:15;3.57;;;3.56;;
23668;SDS011;12011;47.422;15.018;2023-05-13T06:38:48;3.29;;;3.28;;
23668;SDS011;12011;47.422;15.018;2023-05-13T06:41:18;3.62;;;3.61;;
23668;SDS011;12011;47.422;15.018;2023-05-13T06:43:52;3.58;;;3.57;;
23668;SDS011;12011;47.422;15.018;2023-05-13T06:46:26;2.94;;;2.94;;
23668;SDS011;12011;47.422;15.018;2023-05-13T06:48:57;3.28;;;3.27;;
23668;SDS011;12011;47.422;15.018;2023-05-13T06:51:27;4.22;;;4.22;;
23668;SDS011;12011;47.422;15.018;2023-05-13T06:53:59;4.97;;;4.96;;
23668;SDS011;12011;47.422;15.018;2023-05-13T06:56:30;5.12;;;5.10;;
23668;SDS011;12011;47.422;15.018;2023-05-13T06:59:04;4.20;;;4.19;;
23668;SDS011;12011;47.422;15.018;2023-05-13T07:01:34;4.06;;;4.05;;
23668;SDS011;12011;47.422;15.018;2023-05-13T07:04:06;4.29;;;4.28;;
23668;SDS011;12011;47.422;15.018;2023-05-13T07:06:36;3.96;;;3.96;;
23668;SDS011;12011;47.422;15.018;2023-05-13T07:09:06;3.71;;;3.71;;
23668;SDS011;12011;47.422;15.018;2023-05-13T07:11:37;3.45;;;3.43;;
23668;SDS011;12011;47.422;15.018;2023-05-13T07:14:11;3.29;;;3.28;;
23668;SDS011;12011;47.422;15.018;2023-05-13T07:16:41;2.22;;;2.21;;
23668;SDS011;12011;47.422;15.018;2023-05-13T07:19:11;2.70;;;2.69;;
23668;SDS011;12011;47.422;15.018;2023-05-13T07:21:43;2.59;;;2.57;;
23668;SDS011;12011;47.422;15.018;2023-05-13T07:24:14;3.06;;;3.04;;
23668;SDS011;12011;47.422;15.018;2023-05-13T07:26:46;2.81;;;2.80;;
23668;SDS011;12011;47.422;15.018;2023-05-13T07:29:20;2.80;;;2.79;;
23668;SDS011;12011;47.422;15.018;2023-05-13T07:31:51;2.26;;;2.25;;
23668;SDS011;12011;47.422;15.018;2023-05-13T07:34:20;2.39;;;2.37;;
23668;SDS011;12011;47.422;15.018;2023-05-13T07:36:51;2.95;;;2.94;;
23668;SDS011;12011;47.422;15.018;2023-05-13T07:39:21;2.38;;;2.37;;
23668;SDS011;12011;47.422;15.018;2023-05-13T07:41:53;2.63;;;2.62;;
23668;SDS011;12011;47.422;15.018;2023-05-13T07:44:30;2.52;;;2.51;;
23668;SDS011;12011;47.422;15.018;2023-05-13T07:47:00;3.33;;;3.32;;
23668;SDS011;12011;47.422;15.018;2023-05-13T07:49:31;3.45;;;3.44;;
23668;SDS011;12011;47.422;15.018;2023-05-13T07:52:02;1.92;;;1.91;;
23668;SDS011;12011;47.422;15.018;2023-05-13T07:54:35;1.69;;;1.68;;
23668;SDS011;12011;47.422;15.018;2023-05-13T07:57:06;1.53;;;1.52;;
23668;SDS011;12011;47.422;15.018;2023-05-13T07:59:40;1.53;;;1.53;;
23668;SDS011;12011;47.422;15.018;2023-05-13T08:02:11;1.71;;;1.71;;
23668;SDS011;12011;47.422;15.018;2023-05-13T08:04:42;1.72;;;1.71;;
23668;SDS011;12011;47.422;15.018;2023-05-13T08:07:13;1.67;;;1.65;;
23668;SDS011;12011;47.422;15.018;2023-05-13T08:09:44;1.61;;;1.59;;
23668;SDS011;12011;47.422;15.018;2023-05-13T08:12:18;1.37;;;1.37;;
23668;SDS011;12011;47.422;15.018;2023-05-13T08:14:50;1.44;;;1.44;;
23668;SDS011;12011;47.422;15.018;2023-05-13T08:17:20;1.48;;;1.48;;
23668;SDS011;12011;47.422;15.018;2023-05-13T08:19:50;1.30;;;1.29;;
23668;SDS011;12011;47.422;15.018;2023-05-13T08:22:21;1.35;;;1.35;;
23668;SDS011;12011;47.422;15.018;2023-05-13T08:24:52;1.23;;;1.23;;
23668;SDS011;12011;47.422;15.018;2023-05-13T08:27:23;1.31;;;1.30;;
23668;SDS011;12011;47.422;15.018;2023-05-13T08:29:57;1.17;;;1.17;;
23668;SDS011;12011;47.422;15.018;2023-05-13T08:32:28;1.11;;;1.10;;
23668;SDS011;12011;47.422;15.018;2023-05-13T08:34:58;0.94;;;0.93;;
23668;SDS011;12011;47.422;15.018;2023-05-13T08:37:31;1.07;;;1.07;;
23668;SDS011;12011;47.422;15.018;2023-05-13T08:40:01;0.91;;;0.91;;
23668;SDS011;12011;47.422;15.018;2023-05-13T08:42:34;0.87;;;0.87;;
23668;SDS011;12011;47.422;15.018;2023-05-13T08:45:13;0.76;;;0.76;;
23668;SDS011;12011;47.422;15.018;2023-05-13T08:47:47;0.73;;;0.73;;
23668;SDS011;12011;47.422;15.018;2023-05-13T08:50:25;0.94;;;0.93;;
23668;SDS011;12011;47.422;15.018;2023-05-13T08:52:57;0.92;;;0.91;;
23668;SDS011;12011;47.422;15.018;2023-05-13T08:55:29;1.20;;;1.18;;
23668;SDS011;12011;47.422;15.018;2023-05-13T08:57:59;1.15;;;1.14;;
23668;SDS011;12011;47.422;15.018;2023-05-13T09:00:34;1.00;;;1.00;;
23668;SDS011;12011;47.422;15.018;2023-05-13T09:03:08;0.96;;;0.95;;
23668;SDS011;12011;47.422;15.018;2023-05-13T09:05:40;1.01;;;0.99;;
23668;SDS011;12011;47.422;15.018;2023-05-13T09:08:11;1.27;;;1.26;;
23668;SDS011;12011;47.422;15.018;2023-05-13T09:10:46;1.36;;;1.35;;
23668;SDS011;12011;47.422;15.018;2023-05-13T09:13:18;1.26;;;1.25;;
23668;SDS011;12011;47.422;15.018;2023-05-13T09:15:53;0.73;;;0.72;;
23668;SDS011;12011;47.422;15.018;2023-05-13T09:18:28;0.78;;;0.78;;
23668;SDS011;12011;47.422;15.018;2023-05-13T09:24:00;0.84;;;0.83;;
23668;SDS011;12011;47.422;15.018;2023-05-13T09:26:34;0.75;;;0.74;;
23668;SDS011;12011;47.422;15.018;2023-05-13T09:29:14;0.61;;;0.60;;
23668;SDS011;12011;47.422;15.018;2023-05-13T09:31:55;0.61;;;0.60;;
23668;SDS011;12011;47.422;15.018;2023-05-13T09:34:28;0.65;;;0.64;;
23668;SDS011;12011;47.422;15.018;2023-05-13T09:37:01;0.42;;;0.41;;
23668;SDS011;12011;47.422;15.018;2023-05-13T09:39:37;0.49;;;0.48;;
23668;SDS011;12011;47.422;15.018;2023-05-13T09:42:13;0.45;;;0.45;;
23668;SDS011;12011;47.422;15.018;2023-05-13T09:44:46;0.31;;;0.31;;
23668;SDS011;12011;47.422;15.018;2023-05-13T09:47:24;0.24;;;0.24;;
23668;SDS011;12011;47.422;15.018;2023-05-13T09:49:56;0.33;;;0.33;;
23668;SDS011;12011;47.422;15.018;2023-05-13T09:52:28;0.38;;;0.37;;
23668;SDS011;12011;47.422;15.018;2023-05-13T09:54:59;0.43;;;0.43;;
23668;SDS011;12011;47.422;15.018;2023-05-13T09:57:32;0.46;;;0.46;;
23668;SDS011;12011;47.422;15.018;2023-05-13T10:00:09;0.36;;;0.36;;
23668;SDS011;12011;47.422;15.018;2023-05-13T10:02:51;0.29;;;0.29;;
23668;SDS011;12011;47.422;15.018;2023-05-13T10:05:25;0.41;;;0.41;;
23668;SDS011;12011;47.422;15.018;2023-05-13T10:07:58;0.40;;;0.39;;
23668;SDS011;12011;47.422;15.018;2023-05-13T10:10:34;0.40;;;0.40;;
23668;SDS011;12011;47.422;15.018;2023-05-13T10:13:07;0.36;;;0.36;;
23668;SDS011;12011;47.422;15.018;2023-05-13T10:15:47;0.40;;;0.40;;
23668;SDS011;12011;47.422;15.018;2023-05-13T10:18:24;0.34;;;0.34;;
23668;SDS011;12011;47.422;15.018;2023-05-13T10:20:55;0.37;;;0.37;;
23668;SDS011;12011;47.422;15.018;2023-05-13T10:23:26;0.24;;;0.24;;
23668;SDS011;12011;47.422;15.018;2023-05-13T10:26:03;0.30;;;0.30;;
23668;SDS011;12011;47.422;15.018;2023-05-13T10:28:38;0.26;;;0.26;;
23668;SDS011;12011;47.422;15.018;2023-05-13T10:31:11;0.22;;;0.22;;
23668;SDS011;12011;47.422;15.018;2023-05-13T10:33:48;0.29;;;0.29;;
23668;SDS011;12011;47.422;15.018;2023-05-13T10:36:29;0.23;;;0.23;;
23668;SDS011;12011;47.422;15.018;2023-05-13T10:42:41;0.38;;;0.38;;
23668;SDS011;12011;47.422;15.018;2023-05-13T10:45:24;0.29;;;0.29;;
23668;SDS011;12011;47.422;15.018;2023-05-13T10:47:57;0.38;;;0.38;;
23668;SDS011;12011;47.422;15.018;2023-05-13T10:50:39;0.39;;;0.39;;
23668;SDS011;12011;47.422;15.018;2023-05-13T10:53:24;0.36;;;0.36;;
23668;SDS011;12011;47.422;15.018;2023-05-13T10:55:59;0.32;;;0.32;;
23668;SDS011;12011;47.422;15.018;2023-05-13T10:58:35;0.35;;;0.35;;
23668;SDS011;12011;47.422;15.018;2023-05-13T11:01:12;0.34;;;0.34;;
23668;SDS011;12011;47.422;15.018;2023-05-13T11:03:50;0.31;;;0.31;;
23668;SDS011;12011;47.422;15.018;2023-05-13T11:06:32;0.27;;;0.27;;
23668;SDS011;12011;47.422;15.018;2023-05-13T11:09:04;0.30;;;0.30;;
23668;SDS011;12011;47.422;15.018;2023-05-13T11:11:36;0.38;;;0.38;;
23668;SDS011;12011;47.422;15.018;2023-05-13T11:14:07;0.26;;;0.26;;
23668;SDS011;12011;47.422;15.018;2023-05-13T11:16:44;0.43;;;0.43;;
23668;SDS011;12011;47.422;15.018;2023-05-13T11:19:20;0.31;;;0.31;;
23668;SDS011;12011;47.422;15.018;2023-05-13T11:22:04;0.26;;;0.26;;
23668;SDS011;12011;47.422;15.018;2023-05-13T11:24:39;0.26;;;0.26;;
23668;SDS011;12011;47.422;15.018;2023-05-13T11:27:13;0.27;;;0.27;;
23668;SDS011;12011;47.422;15.018;2023-05-13T11:29:49;0.29;;;0.29;;
23668;SDS011;12011;47.422;15.018;2023-05-13T11:35:22;0.33;;;0.33;;
23668;SDS011;12011;47.422;15.018;2023-05-13T11:37:57;0.32;;;0.32;;
23668;SDS011;12011;47.422;15.018;2023-05-13T11:40:30;0.35;;;0.35;;
23668;SDS011;12011;47.422;15.018;2023-05-13T11:43:02;0.29;;;0.29;;
23668;SDS011;12011;47.422;15.018;2023-05-13T11:45:36;0.26;;;0.26;;
23668;SDS011;12011;47.422;15.018;2023-05-13T11:48:16;0.20;;;0.20;;
23668;SDS011;12011;47.422;15.018;2023-05-13T11:50:50;0.26;;;0.26;;
23668;SDS011;12011;47.422;15.018;2023-05-13T11:53:23;0.20;;;0.20;;
23668;SDS011;12011;47.422;15.018;2023-05-13T11:55:53;0.18;;;0.18;;
23668;SDS011;12011;47.422;15.018;2023-05-13T11:58:23;0.17;;;0.17;;
23668;SDS011;12011;47.422;15.018;2023-05-13T12:00:53;0.26;;;0.26;;
23668;SDS011;12011;47.422;15.018;2023-05-13T12:03:26;0.22;;;0.22;;
23668;SDS011;12011;47.422;15.018;2023-05-13T12:05:59;0.24;;;0.24;;
23668;SDS011;12011;47.422;15.018;2023-05-13T12:08:35;0.32;;;0.32;;
23668;SDS011;12011;47.422;15.018;2023-05-13T12:11:12;0.20;;;0.20;;
23668;SDS011;12011;47.422;15.018;2023-05-13T12:13:41;0.32;;;0.32;;
23668;SDS011;12011;47.422;15.018;2023-05-13T12:16:12;0.31;;;0.31;;
23668;SDS011;12011;47.422;15.018;2023-05-13T12:18:42;0.32;;;0.32;;
23668;SDS011;12011;47.422;15.018;2023-05-13T12:21:24;0.20;;;0.20;;
23668;SDS011;12011;47.422;15.018;2023-05-13T12:23:58;0.27;;;0.27;;
23668;SDS011;12011;47.422;15.018;2023-05-13T12:26:28;0.27;;;0.27;;
23668;SDS011;12011;47.422;15.018;2023-05-13T12:28:57;0.38;;;0.38;;
23668;SDS011;12011;47.422;15.018;2023-05-13T12:31:27;0.46;;;0.46;;
23668;SDS011;12011;47.422;15.018;2023-05-13T12:33:59;0.39;;;0.39;;
23668;SDS011;12011;47.422;15.018;2023-05-13T12:36:30;0.49;;;0.49;;
23668;SDS011;12011;47.422;15.018;2023-05-13T12:39:18;0.41;;;0.41;;
23668;SDS011;12011;47.422;15.018;2023-05-13T12:41:49;0.33;;;0.33;;
23668;SDS011;12011;47.422;15.018;2023-05-13T12:44:27;0.43;;;0.43;;
23668;SDS011;12011;47.422;15.018;2023-05-13T12:46:58;0.50;;;0.50;;
23668;SDS011;12011;47.422;15.018;2023-05-13T12:49:30;0.32;;;0.32;;
23668;SDS011;12011;47.422;15.018;2023-05-13T12:51:59;0.39;;;0.39;;
23668;SDS011;12011;47.422;15.018;2023-05-13T12:54:32;0.44;;;0.44;;
23668;SDS011;12011;47.422;15.018;2023-05-13T12:57:06;0.42;;;0.42;;
23668;SDS011;12011;47.422;15.018;2023-05-13T12:59:37;0.49;;;0.49;;
23668;SDS011;12011;47.422;15.018;2023-05-13T13:02:07;0.55;;;0.55;;
23668;SDS011;12011;47.422;15.018;2023-05-13T13:04:37;0.49;;;0.49;;
23668;SDS011;12011;47.422;15.018;2023-05-13T13:07:07;0.63;;;0.63;;
23668;SDS011;12011;47.422;15.018;2023-05-13T13:09:41;0.44;;;0.44;;
23668;SDS011;12011;47.422;15.018;2023-05-13T13:12:11;0.61;;;0.61;;
23668;SDS011;12011;47.422;15.018;2023-05-13T13:14:41;0.61;;;0.61;;
23668;SDS011;12011;47.422;15.018;2023-05-13T13:17:11;0.79;;;0.79;;
23668;SDS011;12011;47.422;15.018;2023-05-13T13:19:41;0.69;;;0.69;;
23668;SDS011;12011;47.422;15.018;2023-05-13T13:22:11;0.65;;;0.65;;
23668;SDS011;12011;47.422;15.018;2023-05-13T13:24:43;0.58;;;0.58;;
23668;SDS011;12011;47.422;15.018;2023-05-13T13:27:13;0.55;;;0.55;;
23668;SDS011;12011;47.422;15.018;2023-05-13T13:29:42;0.63;;;0.63;;
23668;SDS011;12011;47.422;15.018;2023-05-13T13:32:12;0.74;;;0.74;;
23668;SDS011;12011;47.422;15.018;2023-05-13T13:34:42;0.77;;;0.77;;
23668;SDS011;12011;47.422;15.018;2023-05-13T13:37:11;0.68;;;0.68;;
23668;SDS011;12011;47.422;15.018;2023-05-13T13:39:43;0.63;;;0.63;;
23668;SDS011;12011;47.422;15.018;2023-05-13T13:42:13;0.70;;;0.70;;
23668;SDS011;12011;47.422;15.018;2023-05-13T13:44:42;0.73;;;0.73;;
23668;SDS011;12011;47.422;15.018;2023-05-13T13:47:12;0.72;;;0.72;;
23668;SDS011;12011;47.422;15.018;2023-05-13T13:49:42;0.69;;;0.69;;
23668;SDS011;12011;47.422;15.018;2023-05-13T13:52:11;0.79;;;0.79;;
23668;SDS011;12011;47.422;15.018;2023-05-13T13:54:44;0.64;;;0.64;;
23668;SDS011;12011;47.422;15.018;2023-05-13T13:57:14;0.75;;;0.75;;
23668;SDS011;12011;47.422;15.018;2023-05-13T13:59:44;0.66;;;0.66;;
23668;SDS011;12011;47.422;15.018;2023-05-13T14:02:13;0.57;;;0.57;;
23668;SDS011;12011;47.422;15.018;2023-05-13T14:04:44;0.60;;;0.60;;
23668;SDS011;12011;47.422;15.018;2023-05-13T14:07:14;0.76;;;0.76;;
23668;SDS011;12011;47.422;15.018;2023-05-13T14:09:46;0.74;;;0.74;;
23668;SDS011;12011;47.422;15.018;2023-05-13T14:12:17;0.75;;;0.75;;
23668;SDS011;12011;47.422;15.018;2023-05-13T14:14:46;0.72;;;0.72;;
23668;SDS011;12011;47.422;15.018;2023-05-13T14:17:16;0.75;;;0.75;;
23668;SDS011;12011;47.422;15.018;2023-05-13T14:19:45;0.73;;;0.73;;
23668;SDS011;12011;47.422;15.018;2023-05-13T14:22:16;0.90;;;0.90;;
23668;SDS011;12011;47.422;15.018;2023-05-13T14:24:49;0.77;;;0.77;;
23668;SDS011;12011;47.422;15.018;2023-05-13T14:27:19;0.94;;;0.94;;
23668;SDS011;12011;47.422;15.018;2023-05-13T14:29:49;0.99;;;0.99;;
23668;SDS011;12011;47.422;15.018;2023-05-13T14:32:19;0.93;;;0.93;;
23668;SDS011;12011;47.422;15.018;2023-05-13T14:34:49;0.80;;;0.80;;
23668;SDS011;12011;47.422;15.018;2023-05-13T14:37:18;0.65;;;0.65;;
23668;SDS011;12011;47.422;15.018;2023-05-13T14:40:02;0.87;;;0.87;;
23668;SDS011;12011;47.422;15.018;2023-05-13T14:42:33;0.80;;;0.80;;
23668;SDS011;12011;47.422;15.018;2023-05-13T14:45:08;0.88;;;0.88;;
23668;SDS011;12011;47.422;15.018;2023-05-13T14:47:42;0.82;;;0.82;;
23668;SDS011;12011;47.422;15.018;2023-05-13T14:50:13;0.82;;;0.82;;
23668;SDS011;12011;47.422;15.018;2023-05-13T14:52:48;0.97;;;0.97;;
23668;SDS011;12011;47.422;15.018;2023-05-13T14:55:23;0.98;;;0.98;;
23668;SDS011;12011;47.422;15.018;2023-05-13T14:57:54;1.01;;;1.01;;
23668;SDS011;12011;47.422;15.018;2023-05-13T15:00:25;1.00;;;1.00;;
23668;SDS011;12011;47.422;15.018;2023-05-13T15:02:58;0.80;;;0.80;;
23668;SDS011;12011;47.422;15.018;2023-05-13T15:05:28;1.04;;;1.04;;
23668;SDS011;12011;47.422;15.018;2023-05-13T15:07:59;0.99;;;0.99;;
23668;SDS011;12011;47.422;15.018;2023-05-13T15:10:34;0.82;;;0.82;;
23668;SDS011;12011;47.422;15.018;2023-05-13T15:13:04;0.85;;;0.85;;
23668;SDS011;12011;47.422;15.018;2023-05-13T15:15:33;1.01;;;1.01;;